sensor_id;sensor_type;location;lat;lon;timestamp;P1;durP1;ratioP1;P2;durP2;ratioP2
9846;SDS011;68671;50.084;8.794;2023-06-10T00:01:37;0.10;;;0.10;;
9846;SDS011;68671;50.084;8.794;2023-06-10T00:04:10;0.10;;;0.10;;
9846;SDS011;68671;50.084;8.794;2023-06-10T00:06:37;0.10;;;0.10;;
9846;SDS011;68671;50.084;8.794;2023-06-10T00:09:04;0.10;;;0.10;;
9846;SDS011;68671;50.084;8.794;2023-06-10T00:11:35;0.10;;;0.10;;
9846;SDS011;68671;50.084;8.794;2023-06-10T00:14:02;0.10;;;0.10;;
9846;SDS011;68671;50.084;8.794;2023-06-10T00:16:29;0.10;;;0.10;;
9846;SDS011;68671;50.084;8.794;2023-06-10T00:18:56;0.10;;;0.10;;
9846;SDS011;68671;50.084;8.794;2023-06-10T00:21:27;0.10;;;0.10;;
9846;SDS011;68671;50.084;8.794;2023-06-10T00:23:55;0.00;;;0.00;;
9846;SDS011;68671;50.084;8.794;2023-06-10T00:26:22;0.10;;;0.10;;
9846;SDS011;68671;50.084;8.794;2023-06-10T00:28:51;0.00;;;0.00;;
9846;SDS011;68671;50.084;8.794;2023-06-10T00:31:18;0.10;;;0.10;;
9846;SDS011;68671;50.084;8.794;2023-06-10T00:33:45;0.00;;;0.00;;
9846;SDS011;68671;50.084;8.794;2023-06-10T00:36:12;0.00;;;0.00;;
9846;SDS011;68671;50.084;8.794;2023-06-10T00:38:41;0.10;;;0.10;;
9846;SDS011;68671;50.084;8.794;2023-06-10T00:41:08;0.10;;;0.10;;
9846;SDS011;68671;50.084;8.794;2023-06-10T00:43:35;0.10;;;0.10;;
9846;SDS011;68671;50.084;8.794;2023-06-10T00:46:02;0.10;;;0.10;;
9846;SDS011;68671;50.084;8.794;2023-06-10T00:48:29;0.10;;;0.10;;
9846;SDS011;68671;50.084;8.794;2023-06-10T00:50:56;0.10;;;0.10;;
9846;SDS011;68671;50.084;8.794;2023-06-10T00:53:24;0.10;;;0.10;;
9846;SDS011;68671;50.084;8.794;2023-06-10T00:55:54;0.10;;;0.10;;
9846;SDS011;68671;50.084;8.794;2023-06-10T00:58:22;0.10;;;0.10;;
9846;SDS011;68671;50.084;8.794;2023-06-10T01:00:50;0.10;;;0.10;;
9846;SDS011;68671;50.084;8.794;2023-06-10T01:03:18;0.10;;;0.10;;
9846;SDS011;68671;50.084;8.794;2023-06-10T01:05:45;0.10;;;0.10;;
9846;SDS011;68671;50.084;8.794;2023-06-10T01:08:23;0.10;;;0.10;;
9846;SDS011;68671;50.084;8.794;2023-06-10T01:11:01;0.10;;;0.10;;
9846;SDS011;68671;50.084;8.794;2023-06-10T01:13:31;0.10;;;0.10;;
9846;SDS011;68671;50.084;8.794;2023-06-10T01:15:58;0.10;;;0.10;;
9846;SDS011;68671;50.084;8.794;2023-06-10T01:18:29;0.10;;;0.10;;
9846;SDS011;68671;50.084;8.794;2023-06-10T01:20:56;0.10;;;0.10;;
9846;SDS011;68671;50.084;8.794;2023-06-10T01:23:25;0.10;;;0.10;;
9846;SDS011;68671;50.084;8.794;2023-06-10T01:25:53;0.10;;;0.10;;
9846;SDS011;68671;50.084;8.794;2023-06-10T01:28:27;0.10;;;0.10;;
9846;SDS011;68671;50.084;8.794;2023-06-10T01:31:02;0.10;;;0.10;;
9846;SDS011;68671;50.084;8.794;2023-06-10T01:33:37;0.10;;;0.10;;
9846;SDS011;68671;50.084;8.794;2023-06-10T01:36:08;0.10;;;0.10;;
9846;SDS011;68671;50.084;8.794;2023-06-10T01:38:43;0.10;;;0.10;;
9846;SDS011;68671;50.084;8.794;2023-06-10T01:41:11;0.10;;;0.10;;
9846;SDS011;68671;50.084;8.794;2023-06-10T01:43:40;0.10;;;0.10;;
9846;SDS011;68671;50.084;8.794;2023-06-10T01:46:09;0.10;;;0.10;;
9846;SDS011;68671;50.084;8.794;2023-06-10T01:48:37;0.10;;;0.10;;
9846;SDS011;68671;50.084;8.794;2023-06-10T01:51:04;0.10;;;0.10;;
9846;SDS011;68671;50.084;8.794;2023-06-10T01:53:31;0.10;;;0.10;;
9846;SDS011;68671;50.084;8.794;2023-06-10T01:55:59;0.10;;;0.10;;
9846;SDS011;68671;50.084;8.794;2023-06-10T01:58:26;0.10;;;0.10;;
9846;SDS011;68671;50.084;8.794;2023-06-10T02:00:53;0.10;;;0.10;;
9846;SDS011;68671;50.084;8.794;2023-06-10T02:03:20;0.10;;;0.10;;
9846;SDS011;68671;50.084;8.794;2023-06-10T02:05:48;0.10;;;0.10;;
9846;SDS011;68671;50.084;8.794;2023-06-10T02:08:15;0.10;;;0.10;;
9846;SDS011;68671;50.084;8.794;2023-06-10T02:10:42;0.10;;;0.10;;
9846;SDS011;68671;50.084;8.794;2023-06-10T02:13:11;0.10;;;0.10;;
9846;SDS011;68671;50.084;8.794;2023-06-10T02:15:38;0.03;;;0.03;;
9846;SDS011;68671;50.084;8.794;2023-06-10T02:18:05;0.10;;;0.10;;
9846;SDS011;68671;50.084;8.794;2023-06-10T02:20:32;0.10;;;0.10;;
9846;SDS011;68671;50.084;8.794;2023-06-10T02:22:59;0.10;;;0.10;;
9846;SDS011;68671;50.084;8.794;2023-06-10T02:25:26;0.20;;;0.20;;
9846;SDS011;68671;50.084;8.794;2023-06-10T02:27:53;0.10;;;0.10;;
9846;SDS011;68671;50.084;8.794;2023-06-10T02:30:21;0.10;;;0.10;;
9846;SDS011;68671;50.084;8.794;2023-06-10T02:32:48;0.10;;;0.10;;
9846;SDS011;68671;50.084;8.794;2023-06-10T02:35:17;0.00;;;0.00;;
9846;SDS011;68671;50.084;8.794;2023-06-10T02:37:44;0.10;;;0.10;;
9846;SDS011;68671;50.084;8.794;2023-06-10T02:40:11;0.10;;;0.10;;
9846;SDS011;68671;50.084;8.794;2023-06-10T02:42:38;0.10;;;0.10;;
9846;SDS011;68671;50.084;8.794;2023-06-10T02:45:06;0.10;;;0.10;;
9846;SDS011;68671;50.084;8.794;2023-06-10T02:47:37;0.10;;;0.10;;
9846;SDS011;68671;50.084;8.794;2023-06-10T02:50:05;0.10;;;0.10;;
9846;SDS011;68671;50.084;8.794;2023-06-10T02:52:32;0.10;;;0.10;;
9846;SDS011;68671;50.084;8.794;2023-06-10T02:54:59;0.10;;;0.10;;
9846;SDS011;68671;50.084;8.794;2023-06-10T02:57:26;0.10;;;0.10;;
9846;SDS011;68671;50.084;8.794;2023-06-10T02:59:52;0.10;;;0.10;;
9846;SDS011;68671;50.084;8.794;2023-06-10T03:02:19;0.10;;;0.10;;
9846;SDS011;68671;50.084;8.794;2023-06-10T03:04:48;0.10;;;0.10;;
9846;SDS011;68671;50.084;8.794;2023-06-10T03:07:15;0.10;;;0.10;;
9846;SDS011;68671;50.084;8.794;2023-06-10T03:09:43;0.10;;;0.10;;
9846;SDS011;68671;50.084;8.794;2023-06-10T03:12:10;0.10;;;0.10;;
9846;SDS011;68671;50.084;8.794;2023-06-10T03:14:37;0.10;;;0.10;;
9846;SDS011;68671;50.084;8.794;2023-06-10T03:17:05;0.05;;;0.05;;
9846;SDS011;68671;50.084;8.794;2023-06-10T03:19:33;0.10;;;0.10;;
9846;SDS011;68671;50.084;8.794;2023-06-10T03:22:08;0.10;;;0.10;;
9846;SDS011;68671;50.084;8.794;2023-06-10T03:24:36;0.10;;;0.10;;
9846;SDS011;68671;50.084;8.794;2023-06-10T03:27:05;0.10;;;0.10;;
9846;SDS011;68671;50.084;8.794;2023-06-10T03:29:33;0.10;;;0.10;;
9846;SDS011;68671;50.084;8.794;2023-06-10T03:32:12;0.10;;;0.10;;
9846;SDS011;68671;50.084;8.794;2023-06-10T03:34:39;0.10;;;0.10;;
9846;SDS011;68671;50.084;8.794;2023-06-10T03:37:08;0.10;;;0.10;;
9846;SDS011;68671;50.084;8.794;2023-06-10T03:39:35;0.10;;;0.10;;
9846;SDS011;68671;50.084;8.794;2023-06-10T03:42:02;0.10;;;0.10;;
9846;SDS011;68671;50.084;8.794;2023-06-10T03:44:33;0.00;;;0.00;;
9846;SDS011;68671;50.084;8.794;2023-06-10T03:47:00;0.10;;;0.10;;
9846;SDS011;68671;50.084;8.794;2023-06-10T03:49:27;0.10;;;0.10;;
9846;SDS011;68671;50.084;8.794;2023-06-10T03:51:54;0.20;;;0.20;;
9846;SDS011;68671;50.084;8.794;2023-06-10T03:54:23;0.10;;;0.10;;
9846;SDS011;68671;50.084;8.794;2023-06-10T03:56:50;0.10;;;0.10;;
9846;SDS011;68671;50.084;8.794;2023-06-10T03:59:17;0.10;;;0.10;;
9846;SDS011;68671;50.084;8.794;2023-06-10T04:01:44;0.10;;;0.10;;
9846;SDS011;68671;50.084;8.794;2023-06-10T04:04:13;0.10;;;0.10;;
9846;SDS011;68671;50.084;8.794;2023-06-10T04:06:41;0.10;;;0.10;;
9846;SDS011;68671;50.084;8.794;2023-06-10T04:09:09;0.10;;;0.10;;
9846;SDS011;68671;50.084;8.794;2023-06-10T04:11:38;0.10;;;0.10;;
9846;SDS011;68671;50.084;8.794;2023-06-10T04:14:05;0.10;;;0.10;;
9846;SDS011;68671;50.084;8.794;2023-06-10T04:16:32;0.10;;;0.10;;
9846;SDS011;68671;50.084;8.794;2023-06-10T04:19:00;0.10;;;0.10;;
9846;SDS011;68671;50.084;8.794;2023-06-10T04:21:27;0.10;;;0.10;;
9846;SDS011;68671;50.084;8.794;2023-06-10T04:23:54;0.00;;;0.00;;
9846;SDS011;68671;50.084;8.794;2023-06-10T04:26:21;0.10;;;0.10;;
9846;SDS011;68671;50.084;8.794;2023-06-10T04:28:50;0.10;;;0.10;;
9846;SDS011;68671;50.084;8.794;2023-06-10T04:31:19;0.10;;;0.10;;
9846;SDS011;68671;50.084;8.794;2023-06-10T04:33:46;0.10;;;0.10;;
9846;SDS011;68671;50.084;8.794;2023-06-10T04:36:13;0.10;;;0.10;;
9846;SDS011;68671;50.084;8.794;2023-06-10T04:38:40;0.10;;;0.10;;
9846;SDS011;68671;50.084;8.794;2023-06-10T04:41:08;0.10;;;0.10;;
9846;SDS011;68671;50.084;8.794;2023-06-10T04:43:34;0.10;;;0.10;;
9846;SDS011;68671;50.084;8.794;2023-06-10T04:46:03;0.10;;;0.10;;
9846;SDS011;68671;50.084;8.794;2023-06-10T04:48:30;0.10;;;0.10;;
9846;SDS011;68671;50.084;8.794;2023-06-10T04:51:00;0.10;;;0.10;;
9846;SDS011;68671;50.084;8.794;2023-06-10T04:53:27;0.10;;;0.10;;
9846;SDS011;68671;50.084;8.794;2023-06-10T04:55:54;0.10;;;0.10;;
9846;SDS011;68671;50.084;8.794;2023-06-10T04:58:22;0.10;;;0.10;;
9846;SDS011;68671;50.084;8.794;2023-06-10T05:00:49;0.10;;;0.10;;
9846;SDS011;68671;50.084;8.794;2023-06-10T05:03:17;0.10;;;0.10;;
9846;SDS011;68671;50.084;8.794;2023-06-10T05:05:44;0.10;;;0.10;;
9846;SDS011;68671;50.084;8.794;2023-06-10T05:08:11;0.10;;;0.10;;
9846;SDS011;68671;50.084;8.794;2023-06-10T05:10:38;0.10;;;0.10;;
9846;SDS011;68671;50.084;8.794;2023-06-10T05:13:05;0.10;;;0.10;;
9846;SDS011;68671;50.084;8.794;2023-06-10T05:15:32;0.10;;;0.10;;
9846;SDS011;68671;50.084;8.794;2023-06-10T05:17:59;0.10;;;0.10;;
9846;SDS011;68671;50.084;8.794;2023-06-10T05:20:29;0.10;;;0.10;;
9846;SDS011;68671;50.084;8.794;2023-06-10T05:22:56;0.10;;;0.10;;
9846;SDS011;68671;50.084;8.794;2023-06-10T05:25:25;0.10;;;0.10;;
9846;SDS011;68671;50.084;8.794;2023-06-10T05:27:52;0.10;;;0.10;;
9846;SDS011;68671;50.084;8.794;2023-06-10T05:30:19;0.10;;;0.10;;
9846;SDS011;68671;50.084;8.794;2023-06-10T05:32:46;0.17;;;0.17;;
9846;SDS011;68671;50.084;8.794;2023-06-10T05:35:14;0.10;;;0.10;;
9846;SDS011;68671;50.084;8.794;2023-06-10T05:37:43;0.10;;;0.10;;
9846;SDS011;68671;50.084;8.794;2023-06-10T05:40:15;0.10;;;0.10;;
9846;SDS011;68671;50.084;8.794;2023-06-10T05:42:42;0.10;;;0.10;;
9846;SDS011;68671;50.084;8.794;2023-06-10T05:45:10;0.10;;;0.10;;
9846;SDS011;68671;50.084;8.794;2023-06-10T05:47:41;0.20;;;0.20;;
9846;SDS011;68671;50.084;8.794;2023-06-10T05:50:08;0.10;;;0.10;;
9846;SDS011;68671;50.084;8.794;2023-06-10T05:52:35;0.20;;;0.20;;
9846;SDS011;68671;50.084;8.794;2023-06-10T05:55:07;0.10;;;0.10;;
9846;SDS011;68671;50.084;8.794;2023-06-10T05:57:34;0.10;;;0.10;;
9846;SDS011;68671;50.084;8.794;2023-06-10T06:00:01;0.10;;;0.10;;
9846;SDS011;68671;50.084;8.794;2023-06-10T06:02:28;0.10;;;0.10;;
9846;SDS011;68671;50.084;8.794;2023-06-10T06:04:55;0.10;;;0.10;;
9846;SDS011;68671;50.084;8.794;2023-06-10T06:07:22;0.17;;;0.17;;
9846;SDS011;68671;50.084;8.794;2023-06-10T06:09:49;0.10;;;0.10;;
9846;SDS011;68671;50.084;8.794;2023-06-10T06:12:17;0.20;;;0.20;;
9846;SDS011;68671;50.084;8.794;2023-06-10T06:14:44;0.20;;;0.20;;
9846;SDS011;68671;50.084;8.794;2023-06-10T06:17:11;0.10;;;0.10;;
9846;SDS011;68671;50.084;8.794;2023-06-10T06:19:38;0.20;;;0.20;;
9846;SDS011;68671;50.084;8.794;2023-06-10T06:22:05;0.20;;;0.20;;
9846;SDS011;68671;50.084;8.794;2023-06-10T06:24:32;0.15;;;0.15;;
9846;SDS011;68671;50.084;8.794;2023-06-10T06:26:58;0.20;;;0.20;;
9846;SDS011;68671;50.084;8.794;2023-06-10T06:29:27;0.20;;;0.20;;
9846;SDS011;68671;50.084;8.794;2023-06-10T06:31:55;0.20;;;0.20;;
9846;SDS011;68671;50.084;8.794;2023-06-10T06:34:21;0.20;;;0.20;;
9846;SDS011;68671;50.084;8.794;2023-06-10T06:36:48;0.20;;;0.20;;
9846;SDS011;68671;50.084;8.794;2023-06-10T06:39:15;0.20;;;0.20;;
9846;SDS011;68671;50.084;8.794;2023-06-10T06:41:42;0.20;;;0.20;;
9846;SDS011;68671;50.084;8.794;2023-06-10T06:44:09;0.20;;;0.20;;
9846;SDS011;68671;50.084;8.794;2023-06-10T06:46:38;0.20;;;0.20;;
9846;SDS011;68671;50.084;8.794;2023-06-10T06:49:05;0.20;;;0.20;;
9846;SDS011;68671;50.084;8.794;2023-06-10T06:51:31;0.20;;;0.20;;
9846;SDS011;68671;50.084;8.794;2023-06-10T06:53:58;0.20;;;0.20;;
9846;SDS011;68671;50.084;8.794;2023-06-10T06:56:25;0.13;;;0.13;;
9846;SDS011;68671;50.084;8.794;2023-06-10T06:58:53;0.20;;;0.20;;
9846;SDS011;68671;50.084;8.794;2023-06-10T07:01:20;0.20;;;0.20;;
9846;SDS011;68671;50.084;8.794;2023-06-10T07:03:48;0.20;;;0.20;;
9846;SDS011;68671;50.084;8.794;2023-06-10T07:06:15;0.20;;;0.20;;
9846;SDS011;68671;50.084;8.794;2023-06-10T07:08:44;0.20;;;0.20;;
9846;SDS011;68671;50.084;8.794;2023-06-10T07:11:11;0.20;;;0.20;;
9846;SDS011;68671;50.084;8.794;2023-06-10T07:13:41;0.20;;;0.20;;
9846;SDS011;68671;50.084;8.794;2023-06-10T07:16:08;0.20;;;0.20;;
9846;SDS011;68671;50.084;8.794;2023-06-10T07:18:35;0.20;;;0.20;;
9846;SDS011;68671;50.084;8.794;2023-06-10T07:21:03;0.20;;;0.20;;
9846;SDS011;68671;50.084;8.794;2023-06-10T07:23:30;0.20;;;0.20;;
9846;SDS011;68671;50.084;8.794;2023-06-10T07:25:57;0.20;;;0.20;;
9846;SDS011;68671;50.084;8.794;2023-06-10T07:28:26;0.20;;;0.20;;
9846;SDS011;68671;50.084;8.794;2023-06-10T07:30:53;0.20;;;0.20;;
9846;SDS011;68671;50.084;8.794;2023-06-10T07:33:20;0.20;;;0.20;;
9846;SDS011;68671;50.084;8.794;2023-06-10T07:35:47;0.20;;;0.20;;
9846;SDS011;68671;50.084;8.794;2023-06-10T07:38:16;0.20;;;0.20;;
9846;SDS011;68671;50.084;8.794;2023-06-10T07:40:43;0.20;;;0.20;;
9846;SDS011;68671;50.084;8.794;2023-06-10T07:43:12;0.20;;;0.20;;
9846;SDS011;68671;50.084;8.794;2023-06-10T07:45:39;0.20;;;0.20;;
9846;SDS011;68671;50.084;8.794;2023-06-10T07:48:06;0.20;;;0.20;;
9846;SDS011;68671;50.084;8.794;2023-06-10T07:50:38;0.20;;;0.20;;
9846;SDS011;68671;50.084;8.794;2023-06-10T07:53:06;0.20;;;0.20;;
9846;SDS011;68671;50.084;8.794;2023-06-10T07:55:35;0.20;;;0.20;;
9846;SDS011;68671;50.084;8.794;2023-06-10T07:58:02;0.25;;;0.25;;
9846;SDS011;68671;50.084;8.794;2023-06-10T08:00:29;0.25;;;0.25;;
9846;SDS011;68671;50.084;8.794;2023-06-10T08:02:56;0.30;;;0.30;;
9846;SDS011;68671;50.084;8.794;2023-06-10T08:05:23;0.20;;;0.20;;
9846;SDS011;68671;50.084;8.794;2023-06-10T08:07:51;0.20;;;0.20;;
9846;SDS011;68671;50.084;8.794;2023-06-10T08:10:18;0.20;;;0.20;;
9846;SDS011;68671;50.084;8.794;2023-06-10T08:12:46;0.20;;;0.20;;
9846;SDS011;68671;50.084;8.794;2023-06-10T08:15:13;0.20;;;0.20;;
9846;SDS011;68671;50.084;8.794;2023-06-10T08:17:42;0.20;;;0.20;;
9846;SDS011;68671;50.084;8.794;2023-06-10T08:20:09;0.20;;;0.20;;
9846;SDS011;68671;50.084;8.794;2023-06-10T08:22:46;0.20;;;0.20;;
9846;SDS011;68671;50.084;8.794;2023-06-10T08:25:13;0.20;;;0.20;;
9846;SDS011;68671;50.084;8.794;2023-06-10T08:27:40;0.20;;;0.20;;
9846;SDS011;68671;50.084;8.794;2023-06-10T08:30:12;0.20;;;0.20;;
9846;SDS011;68671;50.084;8.794;2023-06-10T08:32:59;0.20;;;0.20;;
9846;SDS011;68671;50.084;8.794;2023-06-10T08:35:26;0.10;;;0.10;;
9846;SDS011;68671;50.084;8.794;2023-06-10T08:37:53;0.10;;;0.10;;
9846;SDS011;68671;50.084;8.794;2023-06-10T08:40:20;0.10;;;0.10;;
9846;SDS011;68671;50.084;8.794;2023-06-10T08:42:51;0.10;;;0.10;;
9846;SDS011;68671;50.084;8.794;2023-06-10T08:45:31;0.10;;;0.10;;
9846;SDS011;68671;50.084;8.794;2023-06-10T08:48:00;0.10;;;0.10;;
9846;SDS011;68671;50.084;8.794;2023-06-10T08:50:31;0.10;;;0.10;;
9846;SDS011;68671;50.084;8.794;2023-06-10T08:53:00;0.10;;;0.10;;
9846;SDS011;68671;50.084;8.794;2023-06-10T08:55:31;0.10;;;0.10;;
9846;SDS011;68671;50.084;8.794;2023-06-10T08:58:00;0.10;;;0.10;;
9846;SDS011;68671;50.084;8.794;2023-06-10T09:00:27;0.10;;;0.10;;
9846;SDS011;68671;50.084;8.794;2023-06-10T09:02:57;0.10;;;0.10;;
9846;SDS011;68671;50.084;8.794;2023-06-10T09:05:24;0.10;;;0.10;;
9846;SDS011;68671;50.084;8.794;2023-06-10T09:07:56;0.10;;;0.10;;
9846;SDS011;68671;50.084;8.794;2023-06-10T09:13:58;0.10;;;0.10;;
9846;SDS011;68671;50.084;8.794;2023-06-10T09:16:26;0.10;;;0.10;;
9846;SDS011;68671;50.084;8.794;2023-06-10T09:18:54;0.10;;;0.10;;
9846;SDS011;68671;50.084;8.794;2023-06-10T09:21:22;0.10;;;0.10;;
9846;SDS011;68671;50.084;8.794;2023-06-10T09:23:49;0.10;;;0.10;;
9846;SDS011;68671;50.084;8.794;2023-06-10T09:26:16;0.10;;;0.10;;
9846;SDS011;68671;50.084;8.794;2023-06-10T09:28:44;0.10;;;0.10;;
9846;SDS011;68671;50.084;8.794;2023-06-10T09:31:13;0.10;;;0.10;;
9846;SDS011;68671;50.084;8.794;2023-06-10T09:33:43;0.10;;;0.10;;
9846;SDS011;68671;50.084;8.794;2023-06-10T09:36:20;0.10;;;0.10;;
9846;SDS011;68671;50.084;8.794;2023-06-10T09:38:49;0.10;;;0.10;;
9846;SDS011;68671;50.084;8.794;2023-06-10T09:41:16;0.10;;;0.10;;
9846;SDS011;68671;50.084;8.794;2023-06-10T09:43:44;0.10;;;0.10;;
9846;SDS011;68671;50.084;8.794;2023-06-10T09:46:14;0.10;;;0.10;;
9846;SDS011;68671;50.084;8.794;2023-06-10T09:48:42;0.08;;;0.08;;
9846;SDS011;68671;50.084;8.794;2023-06-10T09:51:10;0.08;;;0.08;;
9846;SDS011;68671;50.084;8.794;2023-06-10T09:53:47;0.10;;;0.10;;
9846;SDS011;68671;50.084;8.794;2023-06-10T09:56:16;0.00;;;0.00;;
9846;SDS011;68671;50.084;8.794;2023-06-10T09:58:44;0.00;;;0.00;;
9846;SDS011;68671;50.084;8.794;2023-06-10T10:01:13;0.10;;;0.10;;
9846;SDS011;68671;50.084;8.794;2023-06-10T10:03:44;0.00;;;0.00;;
9846;SDS011;68671;50.084;8.794;2023-06-10T10:06:15;0.10;;;0.10;;
9846;SDS011;68671;50.084;8.794;2023-06-10T10:08:46;0.10;;;0.10;;
9846;SDS011;68671;50.084;8.794;2023-06-10T10:11:14;0.10;;;0.10;;
9846;SDS011;68671;50.084;8.794;2023-06-10T10:13:42;0.08;;;0.08;;
9846;SDS011;68671;50.084;8.794;2023-06-10T10:16:15;0.10;;;0.10;;
9846;SDS011;68671;50.084;8.794;2023-06-10T10:18:49;0.07;;;0.07;;
9846;SDS011;68671;50.084;8.794;2023-06-10T10:21:21;0.10;;;0.10;;
9846;SDS011;68671;50.084;8.794;2023-06-10T10:23:56;0.00;;;0.00;;
9846;SDS011;68671;50.084;8.794;2023-06-10T10:26:29;0.10;;;0.10;;
9846;SDS011;68671;50.084;8.794;2023-06-10T10:28:59;0.00;;;0.00;;
9846;SDS011;68671;50.084;8.794;2023-06-10T10:31:36;0.10;;;0.10;;
9846;SDS011;68671;50.084;8.794;2023-06-10T10:34:06;0.10;;;0.10;;
9846;SDS011;68671;50.084;8.794;2023-06-10T10:36:38;0.00;;;0.00;;
9846;SDS011;68671;50.084;8.794;2023-06-10T10:39:07;0.10;;;0.10;;
9846;SDS011;68671;50.084;8.794;2023-06-10T10:41:35;0.10;;;0.10;;
9846;SDS011;68671;50.084;8.794;2023-06-10T10:44:04;0.10;;;0.10;;
9846;SDS011;68671;50.084;8.794;2023-06-10T10:46:39;0.00;;;0.00;;
9846;SDS011;68671;50.084;8.794;2023-06-10T10:49:09;0.00;;;0.00;;
9846;SDS011;68671;50.084;8.794;2023-06-10T10:51:38;0.10;;;0.10;;
9846;SDS011;68671;50.084;8.794;2023-06-10T10:54:29;0.10;;;0.10;;
9846;SDS011;68671;50.084;8.794;2023-06-10T10:57:09;0.10;;;0.10;;
9846;SDS011;68671;50.084;8.794;2023-06-10T10:59:44;0.10;;;0.10;;
9846;SDS011;68671;50.084;8.794;2023-06-10T11:02:15;0.10;;;0.10;;
9846;SDS011;68671;50.084;8.794;2023-06-10T11:04:46;0.08;;;0.08;;
9846;SDS011;68671;50.084;8.794;2023-06-10T11:07:14;0.10;;;0.10;;
9846;SDS011;68671;50.084;8.794;2023-06-10T11:09:58;0.00;;;0.00;;
9846;SDS011;68671;50.084;8.794;2023-06-10T11:12:26;0.10;;;0.10;;
9846;SDS011;68671;50.084;8.794;2023-06-10T11:15:05;0.10;;;0.10;;
9846;SDS011;68671;50.084;8.794;2023-06-10T11:17:32;0.00;;;0.00;;
9846;SDS011;68671;50.084;8.794;2023-06-10T11:20:00;0.10;;;0.10;;
9846;SDS011;68671;50.084;8.794;2023-06-10T11:22:27;0.10;;;0.10;;
9846;SDS011;68671;50.084;8.794;2023-06-10T11:24:54;0.00;;;0.00;;
9846;SDS011;68671;50.084;8.794;2023-06-10T11:27:25;0.10;;;0.10;;
9846;SDS011;68671;50.084;8.794;2023-06-10T11:30:17;0.00;;;0.00;;
9846;SDS011;68671;50.084;8.794;2023-06-10T11:32:45;0.10;;;0.10;;
9846;SDS011;68671;50.084;8.794;2023-06-10T11:35:18;0.10;;;0.10;;
9846;SDS011;68671;50.084;8.794;2023-06-10T11:37:46;0.00;;;0.00;;
9846;SDS011;68671;50.084;8.794;2023-06-10T11:40:14;0.10;;;0.10;;
9846;SDS011;68671;50.084;8.794;2023-06-10T11:42:42;0.10;;;0.10;;
9846;SDS011;68671;50.084;8.794;2023-06-10T11:45:14;0.00;;;0.00;;
9846;SDS011;68671;50.084;8.794;2023-06-10T11:47:54;0.10;;;0.10;;
9846;SDS011;68671;50.084;8.794;2023-06-10T11:50:29;0.10;;;0.10;;
9846;SDS011;68671;50.084;8.794;2023-06-10T11:52:56;0.00;;;0.00;;
9846;SDS011;68671;50.084;8.794;2023-06-10T11:55:24;0.10;;;0.10;;
9846;SDS011;68671;50.084;8.794;2023-06-10T11:57:53;0.10;;;0.10;;
9846;SDS011;68671;50.084;8.794;2023-06-10T12:00:22;0.10;;;0.10;;
9846;SDS011;68671;50.084;8.794;2023-06-10T12:02:54;0.10;;;0.10;;
9846;SDS011;68671;50.084;8.794;2023-06-10T12:05:23;0.10;;;0.10;;
9846;SDS011;68671;50.084;8.794;2023-06-10T12:08:05;0.10;;;0.10;;
9846;SDS011;68671;50.084;8.794;2023-06-10T12:10:39;0.10;;;0.10;;
9846;SDS011;68671;50.084;8.794;2023-06-10T12:13:08;0.10;;;0.10;;
9846;SDS011;68671;50.084;8.794;2023-06-10T12:15:35;0.10;;;0.10;;
9846;SDS011;68671;50.084;8.794;2023-06-10T12:18:02;0.10;;;0.10;;
9846;SDS011;68671;50.084;8.794;2023-06-10T12:20:30;0.10;;;0.10;;
9846;SDS011;68671;50.084;8.794;2023-06-10T12:23:07;0.10;;;0.10;;
9846;SDS011;68671;50.084;8.794;2023-06-10T12:25:35;0.10;;;0.10;;
9846;SDS011;68671;50.084;8.794;2023-06-10T12:28:03;0.10;;;0.10;;
9846;SDS011;68671;50.084;8.794;2023-06-10T12:30:32;0.10;;;0.10;;
9846;SDS011;68671;50.084;8.794;2023-06-10T12:32:59;0.10;;;0.10;;
9846;SDS011;68671;50.084;8.794;2023-06-10T12:35:27;0.10;;;0.10;;
9846;SDS011;68671;50.084;8.794;2023-06-10T12:37:54;0.10;;;0.10;;
9846;SDS011;68671;50.084;8.794;2023-06-10T12:40:25;0.10;;;0.10;;
9846;SDS011;68671;50.084;8.794;2023-06-10T12:42:53;0.10;;;0.10;;
9846;SDS011;68671;50.084;8.794;2023-06-10T12:45:27;0.10;;;0.10;;
9846;SDS011;68671;50.084;8.794;2023-06-10T12:48:05;0.10;;;0.10;;
9846;SDS011;68671;50.084;8.794;2023-06-10T12:50:34;0.10;;;0.10;;
9846;SDS011;68671;50.084;8.794;2023-06-10T12:53:02;0.10;;;0.10;;
9846;SDS011;68671;50.084;8.794;2023-06-10T12:55:29;0.10;;;0.10;;
9846;SDS011;68671;50.084;8.794;2023-06-10T12:57:56;0.10;;;0.10;;
9846;SDS011;68671;50.084;8.794;2023-06-10T13:00:23;0.10;;;0.10;;
9846;SDS011;68671;50.084;8.794;2023-06-10T13:02:51;0.10;;;0.10;;
9846;SDS011;68671;50.084;8.794;2023-06-10T13:05:19;0.10;;;0.10;;
9846;SDS011;68671;50.084;8.794;2023-06-10T13:07:47;0.10;;;0.10;;
9846;SDS011;68671;50.084;8.794;2023-06-10T13:10:14;0.10;;;0.10;;
9846;SDS011;68671;50.084;8.794;2023-06-10T13:12:42;0.10;;;0.10;;
9846;SDS011;68671;50.084;8.794;2023-06-10T13:15:09;0.10;;;0.10;;
9846;SDS011;68671;50.084;8.794;2023-06-10T13:17:36;0.10;;;0.10;;
9846;SDS011;68671;50.084;8.794;2023-06-10T13:20:04;0.10;;;0.10;;
9846;SDS011;68671;50.084;8.794;2023-06-10T13:22:34;0.10;;;0.10;;
9846;SDS011;68671;50.084;8.794;2023-06-10T13:25:01;0.10;;;0.10;;
9846;SDS011;68671;50.084;8.794;2023-06-10T13:27:33;0.10;;;0.10;;
9846;SDS011;68671;50.084;8.794;2023-06-10T13:30:03;0.10;;;0.10;;
9846;SDS011;68671;50.084;8.794;2023-06-10T13:32:31;0.10;;;0.10;;
9846;SDS011;68671;50.084;8.794;2023-06-10T13:34:58;0.10;;;0.10;;
9846;SDS011;68671;50.084;8.794;2023-06-10T13:37:26;0.10;;;0.10;;
9846;SDS011;68671;50.084;8.794;2023-06-10T13:39:57;0.10;;;0.10;;
9846;SDS011;68671;50.084;8.794;2023-06-10T13:42:24;0.00;;;0.00;;
9846;SDS011;68671;50.084;8.794;2023-06-10T13:44:54;0.10;;;0.10;;
9846;SDS011;68671;50.084;8.794;2023-06-10T13:47:21;0.10;;;0.10;;
9846;SDS011;68671;50.084;8.794;2023-06-10T13:49:51;0.10;;;0.10;;
9846;SDS011;68671;50.084;8.794;2023-06-10T13:52:20;0.10;;;0.10;;
9846;SDS011;68671;50.084;8.794;2023-06-10T13:54:48;0.10;;;0.10;;
9846;SDS011;68671;50.084;8.794;2023-06-10T13:57:17;0.08;;;0.08;;
9846;SDS011;68671;50.084;8.794;2023-06-10T13:59:44;0.10;;;0.10;;
9846;SDS011;68671;50.084;8.794;2023-06-10T14:02:11;0.10;;;0.10;;
9846;SDS011;68671;50.084;8.794;2023-06-10T14:04:40;0.10;;;0.10;;
9846;SDS011;68671;50.084;8.794;2023-06-10T14:07:11;0.10;;;0.10;;
9846;SDS011;68671;50.084;8.794;2023-06-10T14:09:41;0.10;;;0.10;;
9846;SDS011;68671;50.084;8.794;2023-06-10T14:12:13;0.10;;;0.10;;
9846;SDS011;68671;50.084;8.794;2023-06-10T14:14:42;0.10;;;0.10;;
9846;SDS011;68671;50.084;8.794;2023-06-10T14:17:09;0.10;;;0.10;;
9846;SDS011;68671;50.084;8.794;2023-06-10T14:19:38;0.10;;;0.10;;
9846;SDS011;68671;50.084;8.794;2023-06-10T14:22:06;0.10;;;0.10;;
9846;SDS011;68671;50.084;8.794;2023-06-10T14:24:37;0.10;;;0.10;;
9846;SDS011;68671;50.084;8.794;2023-06-10T14:27:07;0.10;;;0.10;;
9846;SDS011;68671;50.084;8.794;2023-06-10T14:29:34;0.10;;;0.10;;
9846;SDS011;68671;50.084;8.794;2023-06-10T14:32:03;0.10;;;0.10;;
9846;SDS011;68671;50.084;8.794;2023-06-10T14:34:30;0.10;;;0.10;;
9846;SDS011;68671;50.084;8.794;2023-06-10T14:36:58;0.10;;;0.10;;
9846;SDS011;68671;50.084;8.794;2023-06-10T14:39:28;0.10;;;0.10;;
9846;SDS011;68671;50.084;8.794;2023-06-10T14:41:55;0.10;;;0.10;;
9846;SDS011;68671;50.084;8.794;2023-06-10T14:44:24;0.10;;;0.10;;
9846;SDS011;68671;50.084;8.794;2023-06-10T14:46:53;0.10;;;0.10;;
9846;SDS011;68671;50.084;8.794;2023-06-10T14:49:22;0.10;;;0.10;;
9846;SDS011;68671;50.084;8.794;2023-06-10T14:51:49;0.10;;;0.10;;
9846;SDS011;68671;50.084;8.794;2023-06-10T14:54:16;0.10;;;0.10;;
9846;SDS011;68671;50.084;8.794;2023-06-10T14:56:44;0.10;;;0.10;;
9846;SDS011;68671;50.084;8.794;2023-06-10T14:59:10;0.10;;;0.10;;
9846;SDS011;68671;50.084;8.794;2023-06-10T15:01:37;0.10;;;0.10;;
9846;SDS011;68671;50.084;8.794;2023-06-10T15:04:04;0.10;;;0.10;;
9846;SDS011;68671;50.084;8.794;2023-06-10T15:06:33;0.10;;;0.10;;
9846;SDS011;68671;50.084;8.794;2023-06-10T15:09:00;0.10;;;0.10;;
9846;SDS011;68671;50.084;8.794;2023-06-10T15:11:27;0.10;;;0.10;;
9846;SDS011;68671;50.084;8.794;2023-06-10T15:13:54;0.10;;;0.10;;